Time;durP1;ratioP1;P1;durP2;ratioP2;P2;SDS_P1;SDS_P2;PMS_P1;PMS_P2;Temp;Humidity;BMP_temperature;BMP_pressure;BME280_temperature;BME280_humidity;BME280_pressure;Samples;Min_cycle;Max_cycle;Signal;HPM_P1;HPM_P2
2021/04/03 00:05:50;;;;;;;;;22.00;22.00;;;;;;;;12052477;29;8917;-57
2021/04/03 00:11:52;;;;;;;;;23.25;21.00;;;;;;;;12055272;29;9060;-57
2021/04/03 00:17:53;;;;;;;;;22.50;20.00;;;;;;;;12051000;29;8877;-58
2021/04/03 00:23:54;;;;;;;;;19.75;18.75;;;;;;;;12052637;29;9608;-58
2021/04/03 00:29:56;;;;;;;;;25.00;19.50;;;;;;;;12053154;29;8918;-59
2021/04/03 00:35:57;;;;;;;;;18.00;16.75;;;;;;;;12058030;29;8877;-57
2021/04/03 00:42:10;;;;;;;;;18.50;17.00;;;;;;;;12062969;29;8845;-58
2021/04/03 00:48:12;;;;;;;;;14.00;11.25;;;;;;;;12060956;29;8889;-58
2021/04/03 00:54:13;;;;;;;;;17.00;14.00;;;;;;;;12060633;29;8888;-58
2021/04/03 01:00:17;;;;;;;;;10.25;10.00;;;;;;;;12060457;29;8885;-58
2021/04/03 01:06:20;;;;;;;;;12.75;10.00;;;;;;;;12058497;29;8948;-58
2021/04/03 01:12:35;;;;;;;;;9.75;9.75;;;;;;;;12060396;29;8869;-57
2021/04/03 01:19:45;;;;;;;;;9.00;9.00;;;;;;;;12059329;29;8861;-57
2021/04/03 01:26:02;;;;;;;;;12.75;11.25;;;;;;;;11950140;29;8866;-58
2021/04/03 01:32:05;;;;;;;;;12.25;10.75;;;;;;;;12059994;29;9643;-57
2021/04/03 01:38:18;;;;;;;;;11.50;10.50;;;;;;;;12060718;29;8976;-63
2021/04/03 01:44:53;;;;;;;;;10.50;10.50;;;;;;;;12058166;29;9682;-58
2021/04/03 01:50:55;;;;;;;;;12.00;12.00;;;;;;;;12058173;29;8932;-57
2021/04/03 01:56:59;;;;;;;;;21.25;15.75;;;;;;;;12058337;29;8964;-57
2021/04/03 02:03:20;;;;;;;;;12.25;11.00;;;;;;;;12058935;29;8850;-58
2021/04/03 02:09:25;;;;;;;;;12.50;10.75;;;;;;;;12058430;29;8889;-57
2021/04/03 02:15:31;;;;;;;;;11.75;10.00;;;;;;;;12057062;29;8933;-57
2021/04/03 02:21:35;;;;;;;;;10.00;10.00;;;;;;;;12057160;29;8891;-58
2021/04/03 02:27:38;;;;;;;;;13.75;13.00;;;;;;;;12057208;29;8877;-57
2021/04/03 02:33:39;;;;;;;;;14.25;13.75;;;;;;;;12040135;29;8856;-56
2021/04/03 02:39:41;;;;;;;;;13.00;12.50;;;;;;;;12011679;29;8888;-59
2021/04/03 02:45:54;;;;;;;;;16.50;12.25;;;;;;;;12024862;29;8877;-58
2021/04/03 02:51:58;;;;;;;;;12.25;12.25;;;;;;;;12056480;29;8895;-57
2021/04/03 02:58:00;;;;;;;;;14.00;12.75;;;;;;;;12056284;29;8956;-56
2021/04/03 03:04:03;;;;;;;;;10.75;10.75;;;;;;;;12055601;29;8877;-58
2021/04/03 03:10:08;;;;;;;;;15.50;15.50;;;;;;;;12053453;29;8984;-57
2021/04/03 03:16:13;;;;;;;;;14.50;13.00;;;;;;;;12053084;29;8983;-57
2021/04/03 03:22:17;;;;;;;;;12.00;12.00;;;;;;;;12054363;29;8924;-57
2021/04/03 03:28:20;;;;;;;;;13.25;11.75;;;;;;;;12052492;29;8884;-57
2021/04/03 03:34:22;;;;;;;;;9.00;9.00;;;;;;;;12056399;29;8873;-58
2021/04/03 03:40:29;;;;;;;;;13.75;11.75;;;;;;;;12052264;29;8869;-58
2021/04/03 03:46:33;;;;;;;;;12.50;11.50;;;;;;;;12053962;29;8965;-58
2021/04/03 03:52:34;;;;;;;;;15.00;14.25;;;;;;;;12054809;29;8876;-58
2021/04/03 03:58:37;;;;;;;;;17.25;16.00;;;;;;;;12052568;29;8884;-58
2021/04/03 04:04:39;;;;;;;;;19.00;17.50;;;;;;;;12052585;29;8939;-58
2021/04/03 04:10:43;;;;;;;;;15.50;14.25;;;;;;;;12050730;29;8884;-59
2021/04/03 04:16:47;;;;;;;;;16.00;13.75;;;;;;;;12051247;29;8861;-59
2021/04/03 04:22:51;;;;;;;;;15.00;15.00;;;;;;;;12052345;29;8882;-58
2021/04/03 04:28:58;;;;;;;;;13.75;13.00;;;;;;;;12051890;29;8932;-59
2021/04/03 04:35:06;;;;;;;;;15.50;13.75;;;;;;;;12052229;29;8873;-59
2021/04/03 04:41:08;;;;;;;;;18.25;16.75;;;;;;;;12050999;29;8869;-58
2021/04/03 04:47:11;;;;;;;;;13.00;13.00;;;;;;;;12035758;29;8878;-58
2021/04/03 04:53:13;;;;;;;;;16.00;12.00;;;;;;;;12053367;29;9639;-59
2021/04/03 04:59:19;;;;;;;;;13.00;11.50;;;;;;;;12051261;29;8853;-58
2021/04/03 05:05:30;;;;;;;;;12.00;9.75;;;;;;;;12052284;29;8892;-58
2021/04/03 05:11:31;;;;;;;;;14.00;11.75;;;;;;;;12050703;29;9038;-57
2021/04/03 05:17:32;;;;;;;;;19.50;13.75;;;;;;;;12051987;29;9639;-58
2021/04/03 05:23:34;;;;;;;;;13.75;13.00;;;;;;;;12059318;29;8951;-58
2021/04/03 05:29:36;;;;;;;;;11.50;11.50;;;;;;;;12059817;29;8873;-59
2021/04/03 05:35:38;;;;;;;;;13.50;11.25;;;;;;;;12015438;29;8894;-57
2021/04/03 05:41:40;;;;;;;;;13.00;11.25;;;;;;;;12013493;29;8885;-59
2021/04/03 05:47:42;;;;;;;;;16.50;12.25;;;;;;;;12014134;29;8902;-59
2021/04/03 05:53:43;;;;;;;;;13.50;13.50;;;;;;;;12014109;29;8940;-58
2021/04/03 05:59:44;;;;;;;;;14.75;13.25;;;;;;;;12013317;29;8860;-58
2021/04/03 06:05:50;;;;;;;;;13.00;11.50;;;;;;;;12012800;29;8882;-58
2021/04/03 06:11:52;;;;;;;;;13.75;11.75;;;;;;;;12012228;29;8951;-58
2021/04/03 06:17:55;;;;;;;;;11.75;11.75;;;;;;;;12012951;29;8852;-60
2021/04/03 06:23:56;;;;;;;;;13.50;12.00;;;;;;;;12013328;29;8867;-58
2021/04/03 06:29:58;;;;;;;;;9.25;9.00;;;;;;;;12037872;29;8904;-58
2021/04/03 06:36:11;;;;;;;;;10.50;10.50;;;;;;;;12059128;29;8892;-59
2021/04/03 06:42:12;;;;;;;;;11.00;11.00;;;;;;;;12057954;29;8869;-59
2021/04/03 06:48:15;;;;;;;;;9.25;9.25;;;;;;;;12056790;29;8970;-59
2021/04/03 06:54:17;;;;;;;;;11.75;11.00;;;;;;;;12057693;29;8975;-59
2021/04/03 07:00:20;;;;;;;;;10.00;10.00;;;;;;;;12055623;29;8892;-58
2021/04/03 07:06:22;;;;;;;;;11.50;10.25;;;;;;;;12055832;29;9659;-60
2021/04/03 07:12:27;;;;;;;;;8.50;8.50;;;;;;;;12054688;29;8876;-60
2021/04/03 07:18:29;;;;;;;;;10.25;10.25;;;;;;;;12053279;29;8872;-58
2021/04/03 07:24:34;;;;;;;;;8.25;8.25;;;;;;;;12055667;29;8858;-59
2021/04/03 07:30:35;;;;;;;;;10.00;10.00;;;;;;;;12054496;29;9607;-59
2021/04/03 07:36:40;;;;;;;;;8.25;7.00;;;;;;;;12055628;29;8882;-61
2021/04/03 07:42:42;;;;;;;;;7.75;6.75;;;;;;;;12053886;29;8869;-60
2021/04/03 07:48:46;;;;;;;;;11.50;11.00;;;;;;;;12054482;29;8873;-60
2021/04/03 07:54:47;;;;;;;;;11.50;11.50;;;;;;;;12055010;29;8869;-58
2021/04/03 08:00:49;;;;;;;;;9.00;8.75;;;;;;;;12053491;29;8872;-57
2021/04/03 08:06:51;;;;;;;;;8.50;8.50;;;;;;;;12054773;29;9607;-60
2021/04/03 08:12:54;;;;;;;;;11.00;9.00;;;;;;;;12052763;29;8883;-59
2021/04/03 08:18:57;;;;;;;;;14.75;13.50;;;;;;;;12053084;29;8869;-59
2021/04/03 08:25:01;;;;;;;;;10.67;8.33;;;;;;;;12055113;29;8869;-59
2021/04/03 08:31:18;;;;;;;;;9.00;8.75;;;;;;;;12054385;29;9579;-59
2021/04/03 08:37:19;;;;;;;;;11.00;11.00;;;;;;;;12054991;29;8865;-60
2021/04/03 08:43:24;;;;;;;;;10.25;10.00;;;;;;;;12052626;29;8853;-59
2021/04/03 08:49:29;;;;;;;;;13.33;13.00;;;;;;;;12053847;29;8869;-59
2021/04/03 08:55:31;;;;;;;;;9.00;9.00;;;;;;;;12055481;29;8888;-60
2021/04/03 09:01:36;;;;;;;;;10.75;10.75;;;;;;;;12033521;29;8884;-59
2021/04/03 09:07:38;;;;;;;;;12.25;11.50;;;;;;;;12016916;29;9684;-59
2021/04/03 09:13:40;;;;;;;;;14.50;14.00;;;;;;;;12015793;29;8876;-59
2021/04/03 09:19:42;;;;;;;;;12.00;11.75;;;;;;;;12047140;29;8881;-60
2021/04/03 09:25:44;;;;;;;;;15.00;12.25;;;;;;;;12061271;29;8846;-60
2021/04/03 09:31:46;;;;;;;;;15.75;14.75;;;;;;;;12062005;29;8870;-60
2021/04/03 09:38:03;;;;;;;;;17.50;13.75;;;;;;;;12063442;29;8858;-59
2021/04/03 09:44:05;;;;;;;;;16.00;15.25;;;;;;;;12059707;29;8845;-61
2021/04/03 09:50:08;;;;;;;;;14.75;14.75;;;;;;;;12059696;29;8892;-61
2021/04/03 09:56:09;;;;;;;;;14.00;12.00;;;;;;;;12055663;29;8880;-62
2021/04/03 10:02:11;;;;;;;;;12.00;11.67;;;;;;;;12012827;29;8872;-59
2021/04/03 10:08:13;;;;;;;;;15.00;15.00;;;;;;;;12013825;29;8856;-59
2021/04/03 10:14:15;;;;;;;;;12.33;12.33;;;;;;;;12057897;29;8876;-61
2021/04/03 10:20:17;;;;;;;;;14.00;14.00;;;;;;;;12023187;29;8898;-60
2021/04/03 10:26:19;;;;;;;;;13.00;11.33;;;;;;;;12012985;29;8867;-60
2021/04/03 10:32:20;;;;;;;;;14.25;13.00;;;;;;;;12011608;29;8856;-61
2021/04/03 10:38:21;;;;;;;;;13.33;12.67;;;;;;;;12013074;29;8906;-60
2021/04/03 10:44:23;;;;;;;;;14.67;13.00;;;;;;;;12011284;29;9478;-60
2021/04/03 10:50:24;;;;;;;;;14.33;11.67;;;;;;;;12011784;29;8872;-60
2021/04/03 10:56:26;;;;;;;;;15.33;13.67;;;;;;;;12011850;29;8879;-60
2021/04/03 11:02:27;;;;;;;;;11.00;11.00;;;;;;;;12038476;29;8899;-60
2021/04/03 11:08:29;;;;;;;;;13.33;13.33;;;;;;;;12056824;29;8865;-60
2021/04/03 11:14:31;;;;;;;;;14.00;14.00;;;;;;;;12009817;29;8989;-61
2021/04/03 11:20:33;;;;;;;;;16.00;16.00;;;;;;;;12009681;29;8911;-60
2021/04/03 11:26:34;;;;;;;;;16.33;15.67;;;;;;;;12010571;29;8867;-59
2021/04/03 11:32:36;;;;;;;;;16.00;15.67;;;;;;;;12008765;29;8989;-60
2021/04/03 11:38:37;;;;;;;;;17.33;17.00;;;;;;;;12010781;29;8995;-59
2021/04/03 11:44:38;;;;;;;;;21.67;19.00;;;;;;;;12009626;29;8860;-59
2021/04/03 11:50:41;;;;;;;;;22.25;19.50;;;;;;;;12008579;29;8881;-59
2021/04/03 11:56:42;;;;;;;;;20.25;20.25;;;;;;;;12009531;29;8886;-59
2021/04/03 12:02:43;;;;;;;;;15.50;15.50;;;;;;;;12008483;29;8890;-61
2021/04/03 12:08:45;;;;;;;;;18.25;14.25;;;;;;;;12008059;29;8856;-61
2021/04/03 12:14:46;;;;;;;;;14.75;14.50;;;;;;;;12034572;29;8873;-60
2021/04/03 12:20:48;;;;;;;;;19.25;15.00;;;;;;;;12052714;29;8877;-59
2021/04/03 12:26:52;;;;;;;;;22.67;20.00;;;;;;;;12053905;29;8892;-60
2021/04/03 12:32:53;;;;;;;;;18.33;15.33;;;;;;;;12030088;29;8906;-59
2021/04/03 12:38:55;;;;;;;;;18.00;17.00;;;;;;;;12018525;29;8867;-61
2021/04/03 12:44:56;;;;;;;;;16.33;16.33;;;;;;;;12017434;29;8868;-59
2021/04/03 12:50:58;;;;;;;;;11.67;11.00;;;;;;;;12017314;29;8868;-63
2021/04/03 12:57:00;;;;;;;;;20.33;19.00;;;;;;;;12022007;29;8888;-61
2021/04/03 13:03:02;;;;;;;;;21.00;18.33;;;;;;;;12029940;29;8911;-60
2021/04/03 13:09:04;;;;;;;;;19.33;18.00;;;;;;;;12017730;29;8867;-60
2021/04/03 13:15:06;;;;;;;;;22.33;19.67;;;;;;;;12015187;29;8875;-60
2021/04/03 13:21:10;;;;;;;;;19.67;19.00;;;;;;;;12015412;29;9629;-60
2021/04/03 13:27:11;;;;;;;;;22.33;21.33;;;;;;;;12017056;29;8919;-60
2021/04/03 13:33:13;;;;;;;;;21.33;21.33;;;;;;;;12014301;29;8879;-63
2021/04/03 13:39:15;;;;;;;;;21.67;19.67;;;;;;;;12014959;29;8860;-61
2021/04/03 13:45:16;;;;;;;;;23.33;21.67;;;;;;;;12014418;29;8872;-60
2021/04/03 13:51:17;;;;;;;;;20.67;18.67;;;;;;;;12015430;29;8872;-60
2021/04/03 13:57:19;;;;;;;;;19.00;18.67;;;;;;;;12058563;29;8937;-60
2021/04/03 14:03:22;;;;;;;;;20.00;19.67;;;;;;;;12058411;29;8924;-60
2021/04/03 14:09:24;;;;;;;;;23.33;19.67;;;;;;;;12059175;29;8873;-59
2021/04/03 14:15:25;;;;;;;;;20.67;20.67;;;;;;;;12059225;29;8903;-59
2021/04/03 14:21:27;;;;;;;;;25.67;22.33;;;;;;;;12058308;29;8865;-60
2021/04/03 14:27:28;;;;;;;;;19.33;19.33;;;;;;;;12058801;29;8884;-59
2021/04/03 14:33:29;;;;;;;;;25.67;24.33;;;;;;;;12057417;29;8876;-60
2021/04/03 14:39:32;;;;;;;;;28.67;25.33;;;;;;;;12056918;29;8907;-60
2021/04/03 14:45:34;;;;;;;;;24.00;21.00;;;;;;;;12058023;29;8865;-60
2021/04/03 14:51:37;;;;;;;;;24.00;20.33;;;;;;;;12056395;29;8873;-59
2021/04/03 14:57:40;;;;;;;;;22.00;19.33;;;;;;;;12052019;29;8904;-59
2021/04/03 15:03:41;;;;;;;;;19.67;18.00;;;;;;;;12010360;29;9660;-59
2021/04/03 15:09:43;;;;;;;;;21.67;20.67;;;;;;;;12011065;29;9515;-59
2021/04/03 15:15:45;;;;;;;;;21.00;20.33;;;;;;;;12012134;29;8867;-59
2021/04/03 15:21:47;;;;;;;;;28.75;25.50;;;;;;;;12011903;29;8886;-59
2021/04/03 15:27:48;;;;;;;;;21.50;19.75;;;;;;;;12012292;29;8867;-58
2021/04/03 15:33:49;;;;;;;;;22.00;21.50;;;;;;;;12009751;29;8864;-60
2021/04/03 15:39:53;;;;;;;;;19.75;17.50;;;;;;;;12009007;29;8981;-59
2021/04/03 15:45:55;;;;;;;;;17.75;16.00;;;;;;;;12010592;29;8982;-59
2021/04/03 15:51:56;;;;;;;;;15.50;12.50;;;;;;;;12008965;29;8868;-60
2021/04/03 15:57:57;;;;;;;;;19.25;17.75;;;;;;;;12009888;29;8864;-58
2021/04/03 16:04:00;;;;;;;;;21.00;20.75;;;;;;;;12007589;29;8908;-60
2021/04/03 16:10:04;;;;;;;;;20.50;18.75;;;;;;;;12007863;29;8906;-59
2021/04/03 16:16:06;;;;;;;;;20.25;18.00;;;;;;;;12010804;29;8879;-59
2021/04/03 16:22:07;;;;;;;;;23.75;20.00;;;;;;;;12007521;29;8914;-59
2021/04/03 16:28:09;;;;;;;;;19.25;19.25;;;;;;;;12008688;29;8872;-58
2021/04/03 16:34:10;;;;;;;;;16.00;16.00;;;;;;;;12009347;29;9638;-59
2021/04/03 16:40:12;;;;;;;;;23.75;20.00;;;;;;;;12007632;29;8923;-60
2021/04/03 16:46:14;;;;;;;;;23.25;21.25;;;;;;;;12037452;29;8866;-59
2021/04/03 16:52:15;;;;;;;;;20.00;19.25;;;;;;;;12052024;29;8869;-58
2021/04/03 16:58:16;;;;;;;;;22.00;18.75;;;;;;;;12054062;29;8865;-60
2021/04/03 17:04:18;;;;;;;;;21.75;21.25;;;;;;;;12052014;29;8882;-59
2021/04/03 17:10:19;;;;;;;;;20.75;18.75;;;;;;;;12052405;29;8995;-60
2021/04/03 17:16:21;;;;;;;;;25.25;23.00;;;;;;;;12057260;29;8865;-59
2021/04/03 17:22:23;;;;;;;;;19.75;18.50;;;;;;;;12040854;29;8895;-59
2021/04/03 17:28:25;;;;;;;;;28.25;21.50;;;;;;;;12016532;29;8868;-60
2021/04/03 17:34:26;;;;;;;;;21.00;19.50;;;;;;;;12014898;29;8860;-57
2021/04/03 17:40:28;;;;;;;;;25.00;23.25;;;;;;;;12014003;29;8880;-60
2021/04/03 17:46:31;;;;;;;;;20.25;18.25;;;;;;;;12016572;29;9358;-59
2021/04/03 17:52:32;;;;;;;;;22.50;21.25;;;;;;;;12013928;29;8884;-58
2021/04/03 17:58:34;;;;;;;;;21.25;20.00;;;;;;;;12015573;29;8884;-60
2021/04/03 18:04:37;;;;;;;;;26.75;24.25;;;;;;;;12013306;29;8872;-59
2021/04/03 18:10:40;;;;;;;;;26.50;24.00;;;;;;;;12013738;29;8896;-57
2021/04/03 18:16:41;;;;;;;;;22.75;22.75;;;;;;;;12014079;29;8864;-60
2021/04/03 18:22:44;;;;;;;;;29.75;25.00;;;;;;;;12012689;29;8914;-60
2021/04/03 18:28:46;;;;;;;;;24.50;24.50;;;;;;;;12057698;29;8873;-59
2021/04/03 18:34:47;;;;;;;;;27.00;22.25;;;;;;;;12058037;29;8861;-59
2021/04/03 18:40:49;;;;;;;;;30.75;30.75;;;;;;;;12058518;29;8881;-61
2021/04/03 18:46:50;;;;;;;;;36.50;30.50;;;;;;;;12059228;29;8877;-58
2021/04/03 18:52:52;;;;;;;;;34.00;28.75;;;;;;;;12056161;29;8948;-59
2021/04/03 18:58:53;;;;;;;;;26.00;25.50;;;;;;;;12056519;29;8991;-59
2021/04/03 19:04:56;;;;;;;;;33.25;30.00;;;;;;;;12054680;29;8881;-58
2021/04/03 19:11:00;;;;;;;;;31.75;29.25;;;;;;;;12055256;29;8869;-58
2021/04/03 19:17:01;;;;;;;;;31.75;29.75;;;;;;;;12057333;29;8882;-59
2021/04/03 19:23:03;;;;;;;;;34.00;32.75;;;;;;;;12054220;29;8904;-59
2021/04/03 19:29:04;;;;;;;;;32.00;31.75;;;;;;;;12055632;29;8896;-59
2021/04/03 19:35:07;;;;;;;;;37.75;35.00;;;;;;;;12054733;29;8884;-59
2021/04/03 19:41:08;;;;;;;;;38.00;31.75;;;;;;;;12052838;29;8907;-59
2021/04/03 19:47:11;;;;;;;;;38.75;34.75;;;;;;;;12055975;29;8857;-59
2021/04/03 19:53:13;;;;;;;;;36.25;33.00;;;;;;;;12053632;29;8960;-59
2021/04/03 19:59:15;;;;;;;;;34.50;29.25;;;;;;;;12027747;29;8890;-60
2021/04/03 20:05:16;;;;;;;;;35.75;33.00;;;;;;;;12027222;29;8917;-59
2021/04/03 20:11:18;;;;;;;;;41.25;34.25;;;;;;;;12052599;29;8892;-61
2021/04/03 20:17:19;;;;;;;;;23.25;22.00;;;;;;;;12054326;29;8866;-58
2021/04/03 20:23:20;;;;;;;;;47.50;39.25;;;;;;;;12053064;29;8963;-60
2021/04/03 20:29:22;;;;;;;;;41.00;38.00;;;;;;;;12053192;29;8888;-60
2021/04/03 20:35:24;;;;;;;;;38.00;32.25;;;;;;;;12054906;29;9647;-59
2021/04/03 20:41:26;;;;;;;;;38.00;36.50;;;;;;;;12053890;29;8877;-59
2021/04/03 20:47:28;;;;;;;;;41.00;40.25;;;;;;;;12054794;29;8873;-58
2021/04/03 20:53:29;;;;;;;;;42.25;38.50;;;;;;;;12059734;29;8861;-58
2021/04/03 20:59:32;;;;;;;;;44.25;37.75;;;;;;;;12061970;29;8885;-59
2021/04/03 21:05:33;;;;;;;;;47.25;41.00;;;;;;;;12061865;29;8893;-59
2021/04/03 21:11:38;;;;;;;;;49.50;40.75;;;;;;;;12061425;29;8887;-57
2021/04/03 21:17:40;;;;;;;;;48.75;42.50;;;;;;;;12062260;29;8881;-60
2021/04/03 21:23:41;;;;;;;;;41.75;37.50;;;;;;;;12058189;29;8877;-59
2021/04/03 21:29:43;;;;;;;;;60.00;47.00;;;;;;;;12061237;29;8877;-59
2021/04/03 21:35:44;;;;;;;;;50.00;43.25;;;;;;;;12060334;29;9615;-59
2021/04/03 21:41:46;;;;;;;;;51.00;43.75;;;;;;;;12059382;29;9651;-58
2021/04/03 21:47:47;;;;;;;;;48.75;42.00;;;;;;;;12061536;29;8884;-58
2021/04/03 21:53:48;;;;;;;;;54.25;44.25;;;;;;;;12039161;29;8888;-59
2021/04/03 21:59:50;;;;;;;;;44.75;40.50;;;;;;;;12014426;29;9615;-59
2021/04/03 22:05:51;;;;;;;;;55.25;45.00;;;;;;;;12011750;29;8884;-60
2021/04/03 22:11:59;;;;;;;;;57.00;44.00;;;;;;;;12012664;29;9646;-59
2021/04/03 22:18:00;;;;;;;;;53.25;42.25;;;;;;;;12016085;29;8879;-59
2021/04/03 22:24:02;;;;;;;;;49.00;43.75;;;;;;;;12011429;29;8892;-58
2021/04/03 22:30:08;;;;;;;;;54.75;44.75;;;;;;;;12012041;29;8902;-58
2021/04/03 22:36:10;;;;;;;;;60.75;48.00;;;;;;;;12012629;29;8872;-58
2021/04/03 22:42:13;;;;;;;;;60.00;44.75;;;;;;;;12011380;29;8879;-58
2021/04/03 22:48:15;;;;;;;;;59.75;49.00;;;;;;;;12013396;29;8876;-58
2021/04/03 22:54:16;;;;;;;;;50.50;44.00;;;;;;;;12011627;29;8891;-57
2021/04/03 23:00:22;;;;;;;;;49.50;41.75;;;;;;;;12011745;29;8883;-58
2021/04/03 23:06:23;;;;;;;;;55.75;47.00;;;;;;;;12010370;29;8891;-60
2021/04/03 23:12:25;;;;;;;;;56.50;47.25;;;;;;;;12009847;29;8868;-57
2021/04/03 23:18:26;;;;;;;;;57.50;49.75;;;;;;;;12010551;29;8864;-57
2021/04/03 23:24:28;;;;;;;;;59.50;48.25;;;;;;;;12009713;29;8864;-58
2021/04/03 23:30:31;;;;;;;;;55.00;43.75;;;;;;;;12009830;29;8868;-58
2021/04/03 23:36:32;;;;;;;;;45.00;38.75;;;;;;;;12009362;29;8892;-57
2021/04/03 23:42:34;;;;;;;;;49.00;42.25;;;;;;;;12054028;29;9653;-58
2021/04/03 23:48:35;;;;;;;;;38.75;35.25;;;;;;;;12054832;29;8858;-58
2021/04/03 23:54:37;;;;;;;;;55.50;44.25;;;;;;;;12052871;29;8869;-57
